Latest Weather Observations for Mount Ginini

IDN60901

Issued at 8:11 pm EST Sunday 2 August 2015 (issued every 10 minutes, with the page automatically refreshed every 10 minutes)

About weather observations | Map of Canberra area stations | Latest observations for Canberra area | Other Formats
Station Details ID: 070349 Name: MOUNT GININI AWS Lat: -35.53 Lon: 148.77 Height: 1760.0 m
Data from the previous 72 hours. | See also: Recent months at Mount Ginini
Date/Time
EST
Tmp

°C
App
Tmp
°C
Dew
Point
°C
Rel
Hum
%
Delta-T

°C
Wind Press
QNH
hPa
Press
MSL
hPa
Rain
since
9 am
mm
Dir
 
Spd
km/h
Gust
km/h
Spd
kts
Gust
kts
02/08:00pm -3.7 -10.4 -4.1 97 0.0 WSW 22 46 12 25 - - 2.8
02/07:30pm -3.2 -9.8 -3.6 97 0.0 WSW 22 37 12 20 - - 2.8
02/07:00pm -2.9 -9.9 -3.3 97 0.0 W 24 43 13 23 - - 2.8
02/06:30pm -2.5 -9.4 -2.9 97 0.0 W 24 43 13 23 - - 2.8
02/06:00pm -2.1 -9.0 -2.5 97 0.0 W 24 41 13 22 - - 2.8
02/05:30pm -1.8 -8.6 -2.2 97 0.1 WSW 24 41 13 22 - - 2.8
02/05:00pm -1.0 -6.4 -1.4 97 0.1 WSW 17 33 9 18 - - 2.8
02/04:30pm -0.5 -6.2 -0.9 97 0.1 W 19 41 10 22 - - 2.8
02/04:00pm 0.1 -6.5 -0.3 97 0.2 W 24 44 13 24 - - 2.8
02/03:30pm 0.7 -5.4 0.3 97 0.2 W 22 43 12 23 - - 2.8
02/03:00pm 0.9 -5.6 0.5 97 0.2 W 24 48 13 26 - - 2.8
02/02:30pm 1.5 -4.5 1.1 97 0.2 W 22 43 12 23 - - 2.8
02/02:03pm 1.5 -5.6 1.1 97 0.2 W 28 48 15 26 - - 2.2
02/02:00pm 1.5 -5.3 1.1 97 0.2 W 26 48 14 26 - - 2.2
02/01:40pm 1.5 -5.6 1.1 97 0.2 W 28 52 15 28 - - 1.8
02/01:30pm 1.4 -5.4 1.0 97 0.2 W 26 50 14 27 - - 1.8
02/01:00pm 1.7 -5.4 1.3 97 0.2 W 28 52 15 28 - - 0.6
02/12:32pm 1.6 -5.5 1.2 97 0.2 WNW 28 54 15 29 - - 0.4
02/12:30pm 1.6 -5.1 1.2 97 0.2 WNW 26 54 14 29 - - 0.4
02/12:17pm 1.6 -5.5 1.2 97 0.2 WNW 28 54 15 29 - - 0.2
02/12:00pm 1.9 -4.8 1.5 97 0.2 WNW 26 48 14 26 - - 0.2
02/11:30am 2.1 -4.6 1.7 97 0.2 WNW 26 44 14 24 - - 0.0
02/11:00am 2.2 -4.8 1.8 97 0.2 NW 28 57 15 31 - - 0.0
02/10:30am 2.4 -4.6 2.0 97 0.2 NW 28 48 15 26 - - 0.0
02/10:00am 2.4 -4.6 2.0 97 0.2 NW 28 48 15 26 - - 0.0
02/09:31am 2.3 -5.5 1.9 97 0.2 NW 32 50 17 27 - - 0.0
02/09:30am 2.3 -5.5 1.9 97 0.2 NW 32 48 17 26 - - 0.0
02/09:00am 2.4 -5.4 2.0 97 0.2 NW 32 54 17 29 - - 25.8
02/08:30am 2.6 -4.7 2.2 97 0.2 NW 30 54 16 29 - - 25.8
02/08:00am 2.6 -5.7 2.2 97 0.2 NW 35 57 19 31 - - 25.8
02/07:30am 2.4 -5.9 2.0 97 0.2 NW 35 56 19 30 - - 25.6
02/07:00am 2.3 -6.0 1.9 97 0.2 NW 35 63 19 34 - - 25.6
02/06:30am 2.2 -6.2 1.8 97 0.2 NW 35 59 19 32 - - 25.4
02/06:00am 2.3 -6.0 1.9 97 0.2 WNW 35 57 19 31 - - 25.0
02/05:30am 2.3 -5.5 1.9 97 0.2 WNW 32 61 17 33 - - 23.8
02/05:00am 2.4 -5.4 2.0 97 0.2 WNW 32 56 17 30 - - 22.2
02/04:30am 2.1 -5.9 1.7 97 0.2 WNW 33 67 18 36 - - 20.6
02/04:00am 2.0 -6.0 1.6 97 0.2 WNW 33 61 18 33 - - 18.8
02/03:42am 2.0 -5.0 1.7 98 0.1 WNW 28 54 15 29 - - 17.6
02/03:30am 2.0 -4.7 1.7 98 0.1 WNW 26 46 14 25 - - 17.0
02/03:00am 1.5 -5.3 1.1 97 0.2 WNW 26 50 14 27 - - 15.8
02/02:30am 1.3 -6.6 1.0 98 0.1 WNW 32 59 17 32 - - 14.0
02/02:09am 1.5 -5.6 1.2 98 0.1 WNW 28 52 15 28 - - 12.6
02/02:00am 1.5 -4.5 1.2 98 0.1 W 22 46 12 25 - - 12.2
02/01:30am 0.9 -6.7 0.6 98 0.1 W 30 52 16 28 - - 10.6
02/01:00am 1.2 -6.7 0.9 98 0.1 WNW 32 65 17 35 - - 8.8
02/12:30am 1.1 -6.5 0.8 98 0.1 WNW 30 52 16 28 - - 7.4
02/12:00am 1.3 -6.2 1.0 98 0.1 WNW 30 52 16 28 - - 6.4
 
Date/Time
EST
Tmp

°C
App
Tmp
°C
Dew
Point
°C
Rel
Hum
%
Delta-T

°C
Wind Press
QNH
hPa
Press
MSL
hPa
Rain
since
9 am
mm
Dir
 
Spd
km/h
Gust
km/h
Spd
kts
Gust
kts
01/11:30pm 1.0 -6.2 0.7 98 0.1 WNW 28 52 15 28 - - 5.6
01/11:25pm 0.9 -6.3 0.6 98 0.1 WNW 28 52 15 28 - - 5.6
01/11:00pm 0.8 -6.0 0.5 98 0.1 WNW 26 43 14 23 - - 5.2
01/10:30pm 0.9 -6.3 0.6 98 0.1 WNW 28 50 15 27 - - 5.2
01/10:00pm 1.1 -6.5 0.8 98 0.1 WNW 30 57 16 31 - - 5.0
01/09:53pm 1.1 -6.1 0.8 98 0.1 WNW 28 57 15 31 - - 5.0
01/09:30pm 1.1 -5.3 0.8 98 0.1 WNW 24 54 13 29 - - 5.0
01/09:00pm 1.4 -5.7 1.1 98 0.1 WNW 28 52 15 28 - - 5.0
01/08:30pm 1.9 -5.2 1.6 98 0.1 WNW 28 50 15 27 - - 5.0
01/08:00pm 2.1 -5.3 1.8 98 0.1 W 30 56 16 30 - - 4.8
01/07:30pm 1.8 -6.0 1.5 98 0.1 W 32 59 17 32 - - 4.8
01/07:00pm 2.0 -6.7 1.7 98 0.1 W 37 72 20 39 - - 4.6
01/06:30pm 2.1 -6.6 1.8 98 0.1 W 37 72 20 39 - - 4.4
01/06:00pm 2.0 -6.7 1.7 98 0.1 W 37 74 20 40 - - 4.4
01/05:30pm 2.1 -7.0 1.8 98 0.1 W 39 67 21 36 - - 3.8
01/05:00pm 1.9 -7.6 1.6 98 0.1 W 41 74 22 40 - - 3.4
01/04:30pm 2.9 -7.0 2.8 99 0.0 W 44 72 24 39 - - 2.6
01/04:00pm 3.2 -6.6 3.1 99 0.0 W 44 93 24 50 - - 2.0
01/03:30pm 3.5 -6.7 3.4 99 0.0 W 46 82 25 44 - - 1.8
01/03:00pm 2.8 -7.5 2.7 99 0.0 W 46 87 25 47 - - 1.6
01/02:50pm 3.0 -6.3 2.9 99 0.0 W 41 93 22 50 - - 1.6
01/02:30pm 2.0 -6.7 1.9 99 0.0 W 37 65 20 35 - - 1.6
01/02:00pm 1.6 -7.6 1.5 99 0.0 W 39 69 21 37 - - 0.2
01/01:30pm 1.7 -7.9 1.4 98 0.1 W 41 72 22 39 - - 0.0
01/01:00pm 2.4 -7.4 2.0 97 0.2 W 43 91 23 49 - - 0.0
01/12:30pm 2.3 -6.7 2.2 99 0.0 W 39 74 21 40 - - 0.0
01/12:00pm 2.4 -5.0 2.1 98 0.1 W 30 70 16 38 - - 0.0
01/11:30am 1.9 -5.2 1.6 98 0.1 W 28 65 15 35 - - 0.0
01/11:13am 1.4 -5.7 1.1 98 0.1 WNW 28 52 15 28 - - 0.0
01/11:00am 1.2 -5.2 0.9 98 0.1 WNW 24 50 13 27 - - 0.0
01/10:30am 1.3 -6.8 1.0 98 0.1 W 33 61 18 33 - - 0.0
01/10:00am 1.0 -6.6 0.7 98 0.1 W 30 59 16 32 - - 0.0
01/09:30am 1.1 -6.5 0.8 98 0.1 W 30 59 16 32 - - 0.0
01/09:00am 0.7 -7.9 0.4 98 0.1 WNW 35 67 19 36 - - 0.0
01/08:30am 0.7 -7.9 0.4 98 0.1 WNW 35 74 19 40 - - 0.0
01/08:00am 0.8 -7.8 0.5 98 0.1 WNW 35 59 19 32 - - 0.0
01/07:30am 0.9 -7.6 0.6 98 0.1 WNW 35 63 19 34 - - 0.0
01/07:00am 0.8 -7.4 0.5 98 0.1 W 33 61 18 33 - - 0.0
01/06:30am 0.8 -7.2 0.5 98 0.1 W 32 61 17 33 - - 0.0
01/06:01am 0.7 -6.5 0.4 98 0.1 WNW 28 59 15 32 - - 0.0
01/06:00am 0.7 -6.2 0.4 98 0.1 WNW 26 59 14 32 - - 0.0
01/05:32am 0.8 -6.4 0.5 98 0.1 WNW 28 65 15 35 - - 0.0
01/05:30am 0.7 -6.2 0.4 98 0.1 WNW 26 50 14 27 - - 0.0
01/05:00am 0.8 -7.2 0.5 98 0.1 WNW 32 57 17 31 - - 0.0
01/04:31am 0.8 -6.4 0.5 98 0.1 WNW 28 54 15 29 - - 0.0
01/04:30am 0.8 -6.0 0.5 98 0.1 WNW 26 52 14 28 - - 0.0
01/04:00am 0.6 -7.4 0.3 98 0.1 WNW 32 59 17 32 - - 0.0
01/03:30am 0.5 -6.8 0.2 98 0.1 WNW 28 56 15 30 - - 0.0
01/03:00am 0.2 -7.1 -0.1 98 0.1 WNW 28 52 15 28 - - 0.0
01/02:30am 0.0 -7.7 -0.3 98 0.1 WNW 30 54 16 29 - - 0.0
01/02:00am -0.2 -7.6 -0.5 98 0.1 WNW 28 57 15 31 - - 0.0
01/01:55am -0.3 -7.7 -0.6 98 0.1 WNW 28 57 15 31 - - 0.0
01/01:30am -0.4 -7.0 -0.7 98 0.1 WNW 24 46 13 25 - - 0.0
01/01:00am -0.7 -7.0 -1.0 98 0.1 WNW 22 37 12 20 - - 0.0
01/12:30am -0.7 -6.6 -0.8 99 0.0 WNW 20 41 11 22 - - 0.0
01/12:00am -0.9 -7.2 -1.0 99 0.0 WNW 22 37 12 20 - - 0.0
 
Date/Time
EST
Tmp

°C
App
Tmp
°C
Dew
Point
°C
Rel
Hum
%
Delta-T

°C
Wind Press
QNH
hPa
Press
MSL
hPa
Rain
since
9 am
mm
Dir
 
Spd
km/h
Gust
km/h
Spd
kts
Gust
kts
31/11:30pm -1.0 -7.3 -1.1 99 0.0 WNW 22 35 12 19 - - 0.0
31/11:00pm -0.9 -6.6 -1.0 99 0.0 WNW 19 33 10 18 - - 0.0
31/10:30pm -0.8 -6.7 -0.9 99 0.0 WNW 20 35 11 19 - - 0.0
31/10:00pm -0.9 -8.0 -1.2 98 0.1 WNW 26 37 14 20 - - 0.0
31/09:30pm -1.3 -7.7 -1.6 98 0.0 WNW 22 35 12 19 - - 0.0
31/09:00pm -1.4 -8.2 -2.0 96 0.2 WNW 24 37 13 20 - - 0.0
31/08:30pm -1.7 -8.1 -2.0 98 0.0 WNW 22 33 12 18 - - 0.0
31/08:00pm -1.7 -7.8 -2.0 98 0.0 WNW 20 32 11 17 - - 0.0
31/07:30pm -1.5 -7.5 -1.8 98 0.0 WNW 20 35 11 19 - - 0.0
31/07:00pm -1.0 -6.8 -1.4 97 0.1 WNW 19 33 10 18 - - 0.0
31/06:30pm -0.8 -5.4 -1.1 98 0.1 W 13 28 7 15 - - 0.0
31/06:00pm -0.4 -5.3 -0.7 98 0.1 WNW 15 28 8 15 - - 0.0
31/05:30pm -0.3 -4.9 -0.9 96 0.2 W 13 20 7 11 - - 0.0
31/05:00pm 0.7 -4.1 0.0 95 0.3 W 15 24 8 13 - - 0.0
31/04:30pm 2.0 -3.4 1.1 94 0.4 WNW 19 32 10 17 - - 0.0
31/04:00pm 2.9 -1.3 1.4 90 0.7 WNW 13 20 7 11 - - 0.0
31/03:30pm 2.8 -2.0 0.4 84 1.0 WNW 15 24 8 13 - - 0.0
31/03:00pm 3.2 -1.6 0.1 80 1.3 W 15 26 8 14 - - 0.0
31/02:30pm 3.6 -1.2 0.0 77 1.5 WNW 15 26 8 14 - - 0.0
31/02:00pm 3.8 -0.4 -0.6 73 1.8 WNW 11 22 6 12 - - 0.0
31/01:30pm 3.3 -1.3 -0.9 74 1.7 W 13 24 7 13 - - 0.0
31/01:00pm 2.8 -2.0 0.0 82 1.2 W 15 28 8 15 - - 0.0
31/12:30pm 2.6 -2.0 1.3 91 0.6 W 15 26 8 14 - - 0.0
31/12:00pm 2.2 -2.4 1.5 95 0.3 W 15 24 8 13 - - 0.0
31/11:30am 2.0 -2.2 1.7 98 0.1 W 13 24 7 13 - - 0.0
31/11:00am 1.2 -3.9 0.9 98 0.1 W 17 33 9 18 - - 0.0
31/10:30am 0.5 -4.7 0.2 98 0.1 W 17 30 9 16 - - 0.0
31/10:00am 0.1 -5.7 -0.2 98 0.1 W 20 33 11 18 - - 0.0
31/09:30am 0.0 -6.6 -0.3 98 0.1 W 24 44 13 24 - - 0.0
31/09:00am -0.2 -5.5 -0.5 98 0.1 WSW 17 32 9 17 - - 0.0
31/08:30am -0.4 -6.1 -0.7 98 0.1 WSW 19 33 10 18 - - 0.0
31/08:00am -0.7 -5.7 -1.0 98 0.1 WSW 15 28 8 15 - - 0.0
31/07:30am -1.0 -6.0 -1.3 98 0.1 WSW 15 33 8 18 - - 0.0
31/07:00am -1.1 -5.7 -1.4 98 0.1 WSW 13 30 7 16 - - 0.0
31/06:30am -1.1 -7.5 -1.4 98 0.1 WSW 22 44 12 24 - - 0.0
31/06:00am -1.2 -7.2 -1.5 98 0.1 WSW 20 41 11 22 - - 0.0
31/05:30am -1.3 -7.3 -1.6 98 0.0 WSW 20 37 11 20 - - 0.0
31/05:00am -1.2 -8.0 -1.5 98 0.1 W 24 41 13 22 - - 0.0
31/04:30am -1.2 -8.3 -1.5 98 0.1 W 26 44 14 24 - - 0.0
31/04:23am -1.1 -8.6 -1.4 98 0.1 WSW 28 46 15 25 - - 0.0
31/04:00am -1.2 -8.0 -1.5 98 0.1 W 24 44 13 24 - - 0.0
31/03:30am -1.2 -9.5 -1.5 98 0.1 WSW 32 54 17 29 - - 0.0
31/03:00am -1.1 -9.0 -1.4 98 0.1 W 30 52 16 28 - - 0.0
31/02:30am -1.2 -9.5 -1.5 98 0.1 W 32 57 17 31 - - 0.0
31/02:00am -1.4 -9.3 -1.7 98 0.0 W 30 50 16 27 - - 0.0
31/01:30am -1.6 -9.5 -1.9 98 0.0 W 30 56 16 30 - - 0.0
31/01:00am -1.8 -10.2 -2.1 98 0.0 W 32 63 17 34 - - 0.0
31/12:30am -2.0 -10.9 -2.3 98 0.0 W 35 61 19 33 - - 0.0
31/12:00am -1.9 -10.8 -2.2 98 0.0 W 35 61 19 33 - - 0.0
 
Date/Time
EST
Tmp

°C
App
Tmp
°C
Dew
Point
°C
Rel
Hum
%
Delta-T

°C
Wind Press
QNH
hPa
Press
MSL
hPa
Rain
since
9 am
mm
Dir
 
Spd
km/h
Gust
km/h
Spd
kts
Gust
kts
30/11:30pm -1.6 -10.1 -1.9 98 0.0 W 33 57 18 31 - - 0.0
30/11:10pm -1.5 -9.1 -1.8 98 0.0 W 28 54 15 29 - - 0.0
30/11:00pm -1.4 -8.2 -1.7 98 0.0 W 24 50 13 27 - - 0.0
30/10:30pm -1.4 -8.9 -1.5 99 0.0 W 28 56 15 30 - - 0.0
30/10:00pm -1.4 -9.3 -1.5 99 0.0 W 30 54 16 29 - - 0.0
30/09:30pm -1.3 -9.2 -1.4 99 0.0 WNW 30 52 16 28 - - 0.0
30/09:14pm -1.5 -9.0 -1.6 99 0.0 WNW 28 52 15 28 - - 0.0
30/09:00pm -1.4 -8.5 -1.5 99 0.0 WNW 26 52 14 28 - - 0.0
30/08:30pm -1.5 -9.0 -1.6 99 0.0 WNW 28 52 15 28 - - 0.0

Latest Capital City Observations: Canberra | Sydney | Melbourne | Brisbane | Adelaide | Perth | Hobart | Darwin

Other Formats:

Comma delimited format used in spreadsheet applications
http://www.bom.gov.au/fwo/IDN60903/IDN60903.95925.axf

JavaScript Object Notation format (JSON) in row-major order
http://www.bom.gov.au/fwo/IDN60903/IDN60903.95925.json